createdAt,value
2022-09-17T00:03:07.692Z,21.60
2022-09-17T00:08:11.870Z,21.60
2022-09-17T00:13:13.815Z,21.60
2022-09-17T00:18:15.745Z,21.60
2022-09-17T00:23:17.670Z,22.10
2022-09-17T00:28:19.577Z,21.40
2022-09-17T00:33:21.523Z,21.40
2022-09-17T00:38:23.458Z,21.40
2022-09-17T00:43:42.319Z,21.30
2022-09-17T00:48:45.161Z,21.30
2022-09-17T00:53:47.196Z,21.30
2022-09-17T00:58:50.572Z,21.20
2022-09-17T01:03:52.566Z,21.30
2022-09-17T01:09:06.269Z,21.50
2022-09-17T01:14:17.061Z,21.40
2022-09-17T01:19:22.368Z,21.40
2022-09-17T01:24:47.659Z,21.50
2022-09-17T01:30:08.482Z,21.60
2022-09-17T01:35:10.423Z,21.80
2022-09-17T01:40:17.876Z,22.00
2022-09-17T01:45:27.491Z,22.20
2022-09-17T01:50:36.707Z,22.20
2022-09-17T01:55:40.617Z,22.10
2022-09-17T02:00:45.832Z,22.40
2022-09-17T02:05:54.201Z,22.50
2022-09-17T02:11:08.223Z,22.80
2022-09-17T02:16:27.010Z,22.90
2022-09-17T02:21:29.000Z,23.20
2022-09-17T02:26:32.307Z,23.30
2022-09-17T02:31:34.593Z,23.40
2022-09-17T02:36:36.985Z,23.50
2022-09-17T02:41:44.982Z,23.60
2022-09-17T02:46:52.710Z,23.80
2022-09-17T02:52:08.694Z,23.90
2022-09-17T02:57:17.546Z,24.40
2022-09-17T03:02:22.403Z,24.20
2022-09-17T03:07:24.933Z,24.30
2022-09-17T03:12:27.320Z,24.20
2022-09-17T03:17:29.874Z,24.30
2022-09-17T03:22:31.924Z,24.60
2022-09-17T03:27:34.039Z,24.50
2022-09-17T03:32:35.941Z,24.90
2022-09-17T03:37:37.972Z,24.90
2022-09-17T03:42:40.021Z,24.90
2022-09-17T03:47:41.935Z,24.90
2022-09-17T03:52:44.120Z,24.80
2022-09-17T03:57:46.039Z,24.80
2022-09-17T04:02:48.006Z,24.80
2022-09-17T04:07:49.961Z,24.80
2022-09-17T04:12:51.874Z,24.70
2022-09-17T04:17:59.972Z,24.80
2022-09-17T04:23:02.002Z,24.60
2022-09-17T04:28:03.935Z,24.60
2022-09-17T04:33:05.861Z,24.70
2022-09-17T04:38:09.277Z,24.50
2022-09-17T04:43:11.588Z,24.50
2022-09-17T04:48:13.588Z,24.40
2022-09-17T04:53:15.935Z,24.50
2022-09-17T04:58:17.808Z,24.20
2022-09-17T05:03:19.675Z,24.20
2022-09-17T05:08:23.668Z,24.20
2022-09-17T05:13:25.571Z,24.20
2022-09-17T05:18:27.530Z,24.30
2022-09-17T05:23:29.627Z,24.20
2022-09-17T05:28:31.518Z,24.10
2022-09-17T05:33:33.505Z,24.10
2022-09-17T05:38:35.484Z,24.10
2022-09-17T05:43:37.454Z,24.10
2022-09-17T05:48:39.383Z,24.00
2022-09-17T05:53:42.259Z,23.90
2022-09-17T05:58:44.203Z,24.00
2022-09-17T06:03:46.179Z,24.00
2022-09-17T06:08:48.201Z,23.90
2022-09-17T06:13:53.075Z,23.70
2022-09-17T06:18:55.050Z,23.80
2022-09-17T06:23:57.032Z,23.50
2022-09-17T06:29:00.157Z,23.50
2022-09-17T06:34:02.105Z,23.50
2022-09-17T06:39:04.228Z,23.50
2022-09-17T06:44:06.281Z,23.50
2022-09-17T06:49:08.251Z,23.50
2022-09-17T06:54:10.414Z,23.60
2022-09-17T06:59:12.327Z,23.60
2022-09-17T07:04:14.315Z,23.30
2022-09-17T07:09:16.223Z,23.30
2022-09-17T07:14:21.045Z,23.40
2022-09-17T07:19:22.973Z,23.30
2022-09-17T07:24:27.508Z,23.30
2022-09-17T07:29:32.750Z,22.90
2022-09-17T07:34:34.621Z,22.70
2022-09-17T07:39:36.541Z,22.60
2022-09-17T07:44:38.509Z,22.50
2022-09-17T07:49:40.409Z,22.30
2022-09-17T07:54:42.361Z,22.10
2022-09-17T07:59:44.250Z,21.60
2022-09-17T08:04:46.148Z,21.60
2022-09-17T08:09:48.108Z,21.30
2022-09-17T08:14:49.978Z,21.10
2022-09-17T08:19:51.925Z,21.10
2022-09-17T08:24:53.891Z,21.00
2022-09-17T08:29:55.875Z,21.60
2022-09-17T08:34:58.423Z,20.70
2022-09-17T08:40:02.057Z,20.60
2022-09-17T08:45:05.723Z,20.10
2022-09-17T08:50:14.059Z,20.70
2022-09-17T08:55:31.188Z,19.90
2022-09-17T09:00:38.911Z,19.70
2022-09-17T09:05:44.559Z,20.20
2022-09-17T09:10:49.191Z,20.10
2022-09-17T09:16:26.268Z,19.60
2022-09-17T09:21:29.858Z,18.70
2022-09-17T09:26:39.600Z,17.40
2022-09-17T09:32:16.244Z,17.10
2022-09-17T09:37:24.761Z,17.70
2022-09-17T09:42:34.175Z,15.40
2022-09-17T09:47:50.378Z,15.50
2022-09-17T09:53:15.021Z,15.20
2022-09-17T09:58:28.120Z,15.50
2022-09-17T10:03:32.191Z,16.00
2022-09-17T10:08:35.480Z,15.10
2022-09-17T10:13:37.548Z,13.90
2022-09-17T10:18:39.488Z,13.20
2022-09-17T10:23:43.389Z,13.20
2022-09-17T10:28:48.965Z,13.70
2022-09-17T10:33:51.341Z,12.20
2022-09-17T10:38:53.277Z,11.90
2022-09-17T10:43:55.359Z,11.70
2022-09-17T10:48:59.347Z,11.40
2022-09-17T10:54:20.019Z,11.50
2022-09-17T10:59:21.965Z,11.50
2022-09-17T11:04:56.761Z,11.90
2022-09-17T11:10:01.517Z,10.60
2022-09-17T11:15:14.718Z,10.70
2022-09-17T11:20:22.425Z,11.30
2022-09-17T11:25:33.287Z,11.70
2022-09-17T11:31:01.386Z,12.00
2022-09-17T11:36:41.529Z,10.90
2022-09-17T11:41:45.323Z,11.30
2022-09-17T11:46:56.893Z,11.20
2022-09-17T11:52:01.862Z,10.60
2022-09-17T11:57:16.040Z,10.80
2022-09-17T12:02:47.328Z,10.70
2022-09-17T12:07:55.582Z,10.20
2022-09-17T12:13:09.460Z,10.20
2022-09-17T12:18:32.264Z,10.40
2022-09-17T12:23:47.584Z,11.30
2022-09-17T12:29:04.634Z,10.80
2022-09-17T12:34:12.539Z,10.50
2022-09-17T12:39:23.843Z,9.70
2022-09-17T12:44:44.972Z,10.50
2022-09-17T12:49:54.566Z,8.60
2022-09-17T12:54:56.485Z,8.80
2022-09-17T13:00:07.434Z,7.10
2022-09-17T13:05:12.869Z,7.80
2022-09-17T13:10:21.612Z,7.20
2022-09-17T13:15:42.072Z,7.80
2022-09-17T13:21:03.783Z,7.30
2022-09-17T13:26:07.133Z,7.50
2022-09-17T13:31:49.373Z,7.60
2022-09-17T13:36:52.843Z,6.30
2022-09-17T13:42:02.079Z,6.00
2022-09-17T13:47:24.281Z,6.50
2022-09-17T13:52:35.196Z,4.90
2022-09-17T13:57:47.241Z,4.30
2022-09-17T14:02:49.280Z,3.90
2022-09-17T14:07:52.956Z,4.50
2022-09-17T14:12:57.527Z,2.70
2022-09-17T14:17:59.446Z,2.80
2022-09-17T14:23:01.861Z,1.00
2022-09-17T14:28:07.191Z,1.00
2022-09-17T14:33:19.680Z,1.00
2022-09-17T14:38:33.767Z,1.00
2022-09-17T14:43:45.228Z,1.00
2022-09-17T14:48:47.223Z,1.00
2022-09-17T14:54:06.187Z,1.00
2022-09-17T14:59:14.762Z,1.00
2022-09-17T15:04:24.607Z,1.00
2022-09-17T15:09:27.727Z,1.00
2022-09-17T15:14:30.731Z,1.70
2022-09-17T15:19:37.341Z,3.90
2022-09-17T15:24:39.364Z,5.10
2022-09-17T15:29:46.253Z,5.50
2022-09-17T15:35:07.075Z,4.10
2022-09-17T15:40:13.122Z,4.40
2022-09-17T15:45:20.343Z,2.50
2022-09-17T15:50:35.903Z,1.30
2022-09-17T15:55:40.919Z,1.00
2022-09-17T16:00:42.921Z,1.40
2022-09-17T16:05:46.698Z,2.00
2022-09-17T16:10:48.728Z,3.30
2022-09-17T16:15:50.827Z,4.00
2022-09-17T16:20:52.844Z,4.30
2022-09-17T16:25:54.878Z,5.40
2022-09-17T16:30:56.937Z,5.50
2022-09-17T16:35:59.299Z,6.00
2022-09-17T16:41:04.380Z,6.30
2022-09-17T16:46:07.864Z,7.40
2022-09-17T16:51:25.514Z,8.10
2022-09-17T16:56:45.951Z,8.20
2022-09-17T17:01:50.116Z,8.80
2022-09-17T17:06:52.123Z,9.40
2022-09-17T17:11:54.067Z,10.00
2022-09-17T17:16:56.086Z,10.80
2022-09-17T17:21:58.039Z,11.10
2022-09-17T17:27:00.082Z,11.50
2022-09-17T17:32:03.139Z,11.80
2022-09-17T17:37:05.209Z,12.50
2022-09-17T17:42:07.309Z,12.10
2022-09-17T17:47:09.296Z,12.20
2022-09-17T17:52:11.416Z,12.50
2022-09-17T17:57:13.372Z,12.60
2022-09-17T18:02:15.394Z,12.70
2022-09-17T18:07:17.407Z,12.80
2022-09-17T18:12:21.743Z,13.00
2022-09-17T18:17:28.182Z,13.70
2022-09-17T18:22:30.247Z,13.90
2022-09-17T18:27:32.214Z,14.10
2022-09-17T18:32:34.127Z,14.30
2022-09-17T18:37:36.085Z,14.60
2022-09-17T18:42:38.025Z,14.00
2022-09-17T18:53:33.845Z,14.90
2022-09-17T18:58:35.821Z,14.80
2022-09-17T19:03:37.862Z,14.90
2022-09-17T19:08:39.810Z,15.40
2022-09-17T19:13:43.144Z,16.40
2022-09-17T19:23:49.275Z,15.80
2022-09-17T19:28:52.410Z,16.10
2022-09-17T19:33:54.464Z,16.40
2022-09-17T19:38:59.101Z,17.00
2022-09-17T19:44:01.151Z,17.40
2022-09-17T19:49:03.158Z,17.20
2022-09-17T19:54:06.881Z,17.40
2022-09-17T19:59:08.894Z,17.80
2022-09-17T20:04:10.919Z,17.70
2022-09-17T20:09:12.855Z,17.70
2022-09-17T20:14:15.428Z,17.70
2022-09-17T20:19:17.474Z,17.60
2022-09-17T20:24:20.927Z,18.20
2022-09-17T20:29:22.856Z,17.70
2022-09-17T20:34:24.829Z,18.30
2022-09-17T20:39:26.943Z,18.30
2022-09-17T20:44:29.641Z,18.70
2022-09-17T20:49:31.583Z,18.90
2022-09-17T20:54:33.546Z,19.20
2022-09-17T20:59:53.074Z,19.10
2022-09-17T21:04:55.077Z,19.90
2022-09-17T21:09:56.999Z,19.30
2022-09-17T21:14:59.318Z,20.10
2022-09-17T21:20:01.533Z,19.40
2022-09-17T21:25:03.659Z,19.70
2022-09-17T21:30:09.482Z,19.80
2022-09-17T21:35:11.449Z,19.90
2022-09-17T21:40:13.535Z,19.90
2022-09-17T21:45:15.510Z,20.00
2022-09-17T21:50:17.481Z,20.10
2022-09-17T21:55:19.407Z,20.00
2022-09-17T22:00:23.524Z,20.00
2022-09-17T22:05:25.640Z,20.00
2022-09-17T22:10:27.585Z,20.00
2022-09-17T22:15:29.491Z,20.70
2022-09-17T22:20:31.738Z,20.30
2022-09-17T22:25:33.742Z,20.40
2022-09-17T22:30:35.677Z,20.40
2022-09-17T22:35:37.627Z,20.40
2022-09-17T22:40:39.593Z,20.50
2022-09-17T22:45:41.579Z,20.50
2022-09-17T22:50:48.702Z,20.60
2022-09-17T22:55:54.852Z,20.50
2022-09-17T23:00:57.125Z,20.70
2022-09-17T23:05:59.745Z,20.70
2022-09-17T23:11:04.361Z,20.80
2022-09-17T23:16:07.751Z,21.00
2022-09-17T23:21:13.192Z,21.10
2022-09-17T23:26:17.142Z,21.70
2022-09-17T23:31:26.916Z,21.80
2022-09-17T23:36:30.593Z,22.00
2022-09-17T23:41:33.715Z,21.50
2022-09-17T23:46:36.240Z,21.60
2022-09-17T23:51:38.462Z,21.60
2022-09-17T23:56:40.424Z,22.50
